Time;durP1;ratioP1;P1;durP2;ratioP2;P2;SDS_P1;SDS_P2;PMS_P1;PMS_P2;Temp;Humidity;BMP_temperature;BMP_pressure;BME280_temperature;BME280_humidity;BME280_pressure;Samples;Min_cycle;Max_cycle;Signal;HPM_P1;HPM_P2
2023/09/29 00:00:15;;;;;;;1.60;0.70;;;;;;;-143.84;51.84;45092.88;5088110;28;20540;-58
2023/09/29 00:02:44;;;;;;;0.90;0.50;;;;;;;-143.84;51.73;45071.91;5089279;28;20531;-58
2023/09/29 00:05:15;;;;;;;1.87;0.90;;;;;;;-143.84;52.38;45117.63;5091752;28;20480;-58
2023/09/29 00:07:42;;;;;;;0.80;0.40;;;;;;;-143.84;53.40;45071.91;5091835;28;20512;-58
2023/09/29 00:10:13;;;;;;;1.30;0.70;;;;;;;-143.84;53.50;45075.72;5091984;28;20447;-58
2023/09/29 00:12:41;;;;;;;1.63;0.70;;;;;;;-143.84;53.61;45090.97;5091884;28;20440;-58
2023/09/29 00:15:09;;;;;;;1.00;0.90;;;;;;;-143.84;53.80;45083.34;5092128;28;20444;-58
2023/09/29 00:17:36;;;;;;;1.90;0.63;;;;;;;-143.84;54.42;45098.56;5091849;28;20439;-58
2023/09/29 00:20:11;;;;;;;0.90;0.60;;;;;;;-143.84;54.35;45106.19;5091179;28;20491;-58
2023/09/29 00:22:40;;;;;;;1.70;1.00;;;;;;;-143.84;55.46;45079.53;5091576;28;20455;-58
2023/09/29 00:25:08;;;;;;;1.00;0.73;;;;;;;-143.84;56.55;45083.34;5091703;28;20513;-58
2023/09/29 00:27:35;;;;;;;1.00;0.90;;;;;;;-143.84;57.68;45106.19;5091620;28;20979;-58
2023/09/29 00:30:04;;;;;;;0.80;0.50;;;;;;;-143.84;58.63;45108.09;5091722;28;20443;-58
2023/09/29 00:32:31;;;;;;;1.50;1.07;;;;;;;-143.84;58.52;45075.72;5091560;28;20451;-58
2023/09/29 00:34:59;;;;;;;1.63;1.00;;;;;;;-143.84;59.39;45092.88;5091419;28;20432;-58
2023/09/29 00:37:26;;;;;;;0.90;0.60;;;;;;;-143.84;60.48;45083.34;5091240;28;20476;-58
2023/09/29 00:39:55;;;;;;;1.17;0.90;;;;;;;-143.84;61.16;45090.97;5091373;28;20493;-58
2023/09/29 00:42:23;;;;;;;2.30;1.00;;;;;;;-143.84;62.20;45094.78;5091052;28;20483;-58
2023/09/29 00:44:50;;;;;;;0.90;0.60;;;;;;;-143.84;62.43;45087.16;5091088;28;20440;-58
2023/09/29 00:47:20;;;;;;;1.10;0.77;;;;;;;-143.84;63.50;45087.16;5091285;28;20448;-58
2023/09/29 00:49:48;;;;;;;0.90;0.70;;;;;;;-143.84;63.83;45090.97;5091171;28;20471;-58
2023/09/29 00:52:18;;;;;;;1.37;0.80;;;;;;;-143.84;64.56;45096.66;5091036;28;20451;-58
2023/09/29 00:54:46;;;;;;;1.20;1.03;;;;;;;-143.84;64.44;45113.81;5091012;28;20440;-58
2023/09/29 00:57:15;;;;;;;1.40;0.77;;;;;;;-143.84;64.33;45092.88;5091103;28;21266;-58
2023/09/29 00:59:43;;;;;;;1.20;0.90;;;;;;;-143.84;64.31;45092.88;5090974;28;20569;-58
2023/09/29 01:02:10;;;;;;;1.57;1.13;;;;;;;-143.84;65.80;45085.25;5090770;28;20483;-58
2023/09/29 01:04:38;;;;;;;1.00;0.73;;;;;;;-143.84;66.63;45094.78;5090528;28;20439;-58
2023/09/29 01:07:06;;;;;;;7.03;0.83;;;;;;;-143.84;68.55;45096.66;5090624;28;20938;-58
2023/09/29 01:09:33;;;;;;;7.07;0.70;;;;;;;-143.84;70.54;45081.44;5090682;28;20466;-58
2023/09/29 01:12:01;;;;;;;1.40;0.67;;;;;;;-143.84;71.24;45079.53;5090357;28;20889;-58
2023/09/29 01:14:30;;;;;;;0.90;0.57;;;;;;;-143.84;71.23;45085.25;5090267;28;20515;-57
2023/09/29 01:16:57;;;;;;;1.77;1.57;;;;;;;-143.84;72.49;45064.31;5089842;28;20458;-58
2023/09/29 01:19:24;;;;;;;0.80;0.50;;;;;;;-143.84;72.57;45111.91;5089408;28;20521;-58
2023/09/29 01:21:52;;;;;;;1.00;0.63;;;;;;;-143.84;72.60;45106.19;5089995;28;20487;-58
2023/09/29 01:24:21;;;;;;;0.80;0.50;;;;;;;-143.84;72.83;45085.25;5090433;28;20804;-58
2023/09/29 01:26:48;;;;;;;0.90;0.60;;;;;;;-143.84;74.04;45083.34;5089896;28;20539;-58
2023/09/29 01:29:16;;;;;;;1.00;0.53;;;;;;;-143.84;73.45;45089.06;5089663;28;20448;-58
2023/09/29 01:31:44;;;;;;;0.90;0.60;;;;;;;-143.84;72.65;45102.38;5090334;28;20890;-58
2023/09/29 01:34:12;;;;;;;1.83;0.70;;;;;;;-143.84;71.76;45071.91;5090144;28;20484;-58
2023/09/29 01:36:40;;;;;;;1.00;0.90;;;;;;;-143.84;71.97;45083.34;5090162;28;20493;-58
2023/09/29 01:39:08;;;;;;;1.20;0.70;;;;;;;-143.84;73.84;45106.19;5090389;28;20440;-58
2023/09/29 01:41:37;;;;;;;1.10;0.83;;;;;;;-143.84;75.68;45096.66;5089948;28;20491;-58
2023/09/29 01:44:05;;;;;;;1.00;0.83;;;;;;;-143.84;76.54;45106.19;5089941;28;20463;-58
2023/09/29 01:46:32;;;;;;;1.20;0.97;;;;;;;-143.84;76.48;45123.34;5089897;28;20964;-58
2023/09/29 01:48:59;;;;;;;1.00;0.77;;;;;;;-143.84;76.40;45096.66;5090020;28;20440;-58
2023/09/29 01:51:29;;;;;;;1.00;0.70;;;;;;;-143.84;76.60;45110.00;5089871;28;20527;-58
2023/09/29 01:53:57;;;;;;;1.20;0.70;;;;;;;-143.84;76.21;45085.25;5090316;28;20510;-58
2023/09/29 01:56:24;;;;;;;0.90;0.70;;;;;;;-143.84;76.55;45092.88;5089982;28;20876;-58
2023/09/29 01:58:53;;;;;;;0.90;0.80;;;;;;;-143.84;76.88;45127.13;5089934;28;20451;-58
2023/09/29 02:01:20;;;;;;;0.80;0.50;;;;;;;-143.84;77.03;45111.91;5089552;28;20486;-58
2023/09/29 02:03:48;;;;;;;1.53;0.77;;;;;;;-143.84;76.71;45085.25;5089710;28;20440;-58
2023/09/29 02:06:15;;;;;;;0.80;0.50;;;;;;;-143.84;76.34;45083.34;5089679;28;20440;-58
2023/09/29 02:08:43;;;;;;;0.83;0.57;;;;;;;-143.84;75.69;45106.19;5089828;28;20436;-58
2023/09/29 02:11:10;;;;;;;0.80;0.57;;;;;;;-143.84;75.54;45104.28;5089614;28;20440;-58
2023/09/29 02:13:38;;;;;;;2.40;2.00;;;;;;;-143.84;75.76;45079.53;5089349;28;20444;-58
2023/09/29 02:16:11;;;;;;;0.80;0.60;;;;;;;-143.84;75.89;45081.44;5089371;28;20505;-58
2023/09/29 02:18:38;;;;;;;0.90;0.60;;;;;;;-143.84;77.13;45106.19;5089219;28;20548;-58
2023/09/29 02:21:09;;;;;;;0.90;0.60;;;;;;;-143.84;77.45;45102.38;5089616;28;20475;-58
2023/09/29 02:23:38;;;;;;;1.00;0.60;;;;;;;-143.84;78.26;45119.53;5089418;28;20483;-58
2023/09/29 02:26:05;;;;;;;1.87;1.03;;;;;;;-143.84;78.58;45130.94;5088743;28;20444;-58
2023/09/29 02:28:33;;;;;;;1.10;0.90;;;;;;;-143.84;79.13;45092.88;5089539;28;20458;-58
2023/09/29 02:31:02;;;;;;;1.00;0.80;;;;;;;-143.84;79.86;45089.06;5089240;28;20448;-58
2023/09/29 02:33:31;;;;;;;1.00;0.83;;;;;;;-143.84;79.31;45102.38;5089323;28;20562;-58
2023/09/29 02:35:58;;;;;;;0.80;0.40;;;;;;;-143.84;78.99;45096.66;5089209;28;20837;-58
2023/09/29 02:38:25;;;;;;;1.20;0.50;;;;;;;-143.84;79.22;45106.19;5089157;28;20908;-58
2023/09/29 02:40:54;;;;;;;0.90;0.60;;;;;;;-143.84;79.11;45102.38;5089153;28;20543;-58
2023/09/29 02:43:21;;;;;;;0.80;0.40;;;;;;;-143.84;79.50;45108.09;5089030;28;20448;-58
2023/09/29 02:45:48;;;;;;;0.90;0.67;;;;;;;-143.84;79.49;45127.13;5089003;28;20485;-58
2023/09/29 02:48:15;;;;;;;0.93;0.73;;;;;;;-143.84;79.93;45083.34;5089021;28;20436;-58
2023/09/29 02:50:45;;;;;;;0.80;0.40;;;;;;;-143.84;80.19;45089.06;5089025;28;20523;-58
2023/09/29 02:53:13;;;;;;;1.10;1.00;;;;;;;-143.84;80.69;45087.16;5088813;28;20897;-58
2023/09/29 02:55:40;;;;;;;1.20;0.80;;;;;;;-143.84;81.53;45100.47;5088933;28;20931;-58
2023/09/29 02:58:07;;;;;;;0.90;0.73;;;;;;;-143.84;81.98;45106.19;5088856;28;20489;-58
2023/09/29 03:00:35;;;;;;;0.90;0.80;;;;;;;-143.84;82.31;45075.72;5088688;28;20436;-58
2023/09/29 03:03:03;;;;;;;1.20;0.83;;;;;;;-143.84;82.50;45102.38;5088679;28;20845;-58
2023/09/29 03:05:30;;;;;;;2.20;0.83;;;;;;;-143.84;83.29;45106.19;5088518;28;20444;-58
2023/09/29 03:07:59;;;;;;;0.90;0.67;;;;;;;-143.84;84.26;45125.22;5088433;28;20451;-58
2023/09/29 03:10:29;;;;;;;3.87;2.23;;;;;;;-143.84;84.89;45123.34;5088741;28;20979;-58
2023/09/29 03:12:57;;;;;;;0.90;0.60;;;;;;;-143.84;85.71;45087.16;5088643;28;20440;-58
2023/09/29 03:15:25;;;;;;;1.10;0.70;;;;;;;-143.84;86.29;45106.19;5088652;28;21186;-58
2023/09/29 03:17:52;;;;;;;1.73;0.80;;;;;;;-143.84;86.51;45092.88;5088856;28;20440;-58
2023/09/29 03:20:20;;;;;;;0.90;0.60;;;;;;;-143.84;86.61;45100.47;5068860;28;20519;-57
2023/09/29 03:22:48;;;;;;;0.80;0.50;;;;;;;-143.84;86.54;45108.09;5068568;28;20559;-58
2023/09/29 03:25:19;;;;;;;6.20;1.00;;;;;;;-143.84;86.54;45079.53;5068395;28;20530;-58
2023/09/29 03:27:47;;;;;;;0.90;0.50;;;;;;;-143.84;86.71;45138.56;5068239;28;20536;-58
2023/09/29 03:30:16;;;;;;;4.40;0.80;;;;;;;-143.84;86.71;45123.34;5068358;28;20523;-58
2023/09/29 03:32:43;;;;;;;0.90;0.57;;;;;;;-143.84;86.86;45115.72;5068254;28;20437;-58
2023/09/29 03:35:13;;;;;;;0.87;0.67;;;;;;;-143.84;86.57;45111.91;5068362;28;20424;-58
2023/09/29 03:37:42;;;;;;;0.90;0.60;;;;;;;-143.84;86.18;45113.81;5069499;28;20440;-58
2023/09/29 03:40:10;;;;;;;0.80;0.60;;;;;;;-143.84;86.22;45115.72;5072444;28;20552;-59
2023/09/29 03:42:42;;;;;;;1.30;0.97;;;;;;;-143.84;86.25;45127.13;5088118;28;20501;-60
2023/09/29 03:45:11;;;;;;;1.07;0.97;;;;;;;-143.84;86.94;45108.09;5092430;28;20467;-60
2023/09/29 03:47:38;;;;;;;1.67;1.03;;;;;;;-143.84;86.82;45081.44;5092235;28;20432;-60
2023/09/29 03:50:08;;;;;;;0.90;0.60;;;;;;;-143.84;87.02;45094.78;5092302;28;20444;-60
2023/09/29 03:52:36;;;;;;;1.00;0.87;;;;;;;-143.84;87.42;45090.97;5092605;28;20535;-60
2023/09/29 03:55:04;;;;;;;0.90;0.63;;;;;;;-143.84;87.25;45100.47;5091466;28;20957;-60
2023/09/29 03:57:31;;;;;;;1.20;1.07;;;;;;;-143.84;87.65;45102.38;5092066;28;20862;-60
2023/09/29 04:00:00;;;;;;;1.10;0.87;;;;;;;-143.84;87.50;45111.91;5091871;28;20542;-60
2023/09/29 04:02:27;;;;;;;1.30;0.87;;;;;;;-143.84;87.79;45111.91;5092303;28;20472;-60
2023/09/29 04:04:54;;;;;;;1.10;1.00;;;;;;;-143.84;87.89;45108.09;5092173;28;20436;-60
2023/09/29 04:07:21;;;;;;;1.10;0.70;;;;;;;-143.84;88.25;45115.72;5092174;28;20929;-60
2023/09/29 04:09:48;;;;;;;1.47;1.37;;;;;;;-143.84;88.52;45087.16;5092323;28;20428;-60
2023/09/29 04:12:16;;;;;;;1.00;0.80;;;;;;;-143.84;88.23;45092.88;5091727;28;20447;-60
2023/09/29 04:14:43;;;;;;;0.90;0.60;;;;;;;-143.84;88.16;45106.19;5091913;28;20544;-60
2023/09/29 04:17:13;;;;;;;0.83;0.57;;;;;;;-143.84;88.30;45090.97;5091693;28;20500;-60
2023/09/29 04:19:40;;;;;;;0.80;0.50;;;;;;;-143.84;88.13;45121.44;5091608;28;20487;-60
2023/09/29 04:22:07;;;;;;;1.63;0.80;;;;;;;-143.84;88.34;45085.25;5091696;28;20488;-60
2023/09/29 04:24:34;;;;;;;0.93;0.83;;;;;;;-143.84;88.34;45106.19;5091769;28;20501;-60
2023/09/29 04:27:01;;;;;;;1.20;0.70;;;;;;;-143.84;88.13;45140.47;5091713;28;20444;-60
2023/09/29 04:29:28;;;;;;;0.90;0.60;;;;;;;-143.84;88.04;45129.03;5091205;28;20436;-60
2023/09/29 04:31:55;;;;;;;1.30;1.20;;;;;;;-143.84;87.95;45090.97;5091156;28;20806;-60
2023/09/29 04:34:24;;;;;;;1.00;0.60;;;;;;;-143.84;87.93;45104.28;5091108;28;20444;-60
2023/09/29 04:36:51;;;;;;;0.90;0.63;;;;;;;-143.84;88.21;45100.47;5091363;28;20440;-60
2023/09/29 04:39:18;;;;;;;8.53;1.40;;;;;;;-143.84;87.91;45081.44;5091371;28;20971;-60
2023/09/29 04:41:45;;;;;;;1.00;0.90;;;;;;;-143.84;87.50;45115.72;5091066;28;20536;-60
2023/09/29 04:44:12;;;;;;;0.90;0.70;;;;;;;-143.84;87.59;45111.91;5091632;28;20455;-60
2023/09/29 04:46:41;;;;;;;0.90;0.60;;;;;;;-143.84;87.66;45096.66;5091270;28;20436;-60
2023/09/29 04:49:09;;;;;;;0.87;0.63;;;;;;;-143.84;87.24;45094.78;5090864;28;21058;-60
2023/09/29 04:51:37;;;;;;;1.93;1.20;;;;;;;-143.84;87.02;45111.91;5091253;28;20797;-60
2023/09/29 04:54:05;;;;;;;1.20;0.77;;;;;;;-143.84;86.64;45102.38;5091043;28;20452;-60
2023/09/29 04:56:32;;;;;;;0.90;0.80;;;;;;;-143.84;86.99;45117.63;5090789;28;20434;-60
2023/09/29 04:58:59;;;;;;;0.90;0.77;;;;;;;-143.84;86.71;45089.06;5091069;28;20448;-60
2023/09/29 05:01:27;;;;;;;1.00;0.80;;;;;;;-143.84;86.20;45119.53;5091009;28;20768;-60
2023/09/29 05:03:54;;;;;;;1.00;0.80;;;;;;;-143.84;85.66;45094.78;5091013;28;20871;-60
2023/09/29 05:06:22;;;;;;;0.90;0.60;;;;;;;-143.84;84.65;45092.88;5090812;28;20432;-59
2023/09/29 05:08:51;;;;;;;0.93;0.80;;;;;;;-143.84;83.76;45089.06;5090565;28;20464;-60
2023/09/29 05:11:22;;;;;;;0.90;0.60;;;;;;;-143.84;83.06;45106.19;5090644;28;20493;-60
2023/09/29 05:13:49;;;;;;;1.00;0.70;;;;;;;-143.84;82.32;45115.72;5090784;28;20451;-60
2023/09/29 05:16:17;;;;;;;1.20;0.60;;;;;;;-143.84;82.19;45060.50;5090770;28;20481;-60
2023/09/29 05:18:45;;;;;;;0.80;0.50;;;;;;;-143.84;81.43;45071.91;5090351;28;20981;-60
2023/09/29 05:21:12;;;;;;;1.90;1.10;;;;;;;-143.84;80.17;45068.13;5090589;28;20451;-60
2023/09/29 05:23:39;;;;;;;1.30;1.20;;;;;;;-143.84;78.76;45079.53;5090281;28;20475;-60
2023/09/29 05:26:09;;;;;;;2.30;1.07;;;;;;;-143.84;77.46;45052.88;5089462;28;20455;-60
2023/09/29 05:28:37;;;;;;;0.80;0.50;;;;;;;-143.84;75.83;45071.91;5089407;28;20468;-60
2023/09/29 05:31:05;;;;;;;0.90;0.50;;;;;;;-143.84;74.66;45079.53;5090129;28;20440;-60
2023/09/29 05:33:33;;;;;;;1.00;0.60;;;;;;;-143.84;73.57;45062.41;5089767;28;20436;-60
2023/09/29 05:36:00;;;;;;;1.00;0.60;;;;;;;-143.84;71.97;45064.31;5089475;28;20531;-59
2023/09/29 05:38:28;;;;;;;1.00;0.77;;;;;;;-143.84;71.00;45052.88;5089680;28;20444;-60
2023/09/29 05:40:55;;;;;;;1.83;1.03;;;;;;;-143.84;70.61;45070.00;5089429;28;20463;-60
2023/09/29 05:43:23;;;;;;;1.20;0.63;;;;;;;-143.84;70.26;45049.06;5089646;28;20498;-60
2023/09/29 05:45:51;;;;;;;0.90;0.67;;;;;;;-143.84;69.35;45052.88;5090007;28;20533;-60
2023/09/29 05:48:18;;;;;;;1.00;0.70;;;;;;;-143.84;68.69;45037.66;5089968;28;20440;-60
2023/09/29 05:50:45;;;;;;;1.00;0.80;;;;;;;-143.84;67.10;45054.78;5090032;28;20442;-60
2023/09/29 05:53:12;;;;;;;0.93;0.77;;;;;;;-143.84;66.04;45066.22;5089713;28;20443;-60
2023/09/29 05:55:39;;;;;;;1.07;0.93;;;;;;;-143.84;64.59;45043.34;5089835;28;20440;-60
2023/09/29 05:58:07;;;;;;;1.27;0.77;;;;;;;-143.84;62.80;45020.50;5089807;28;20455;-60
2023/09/29 06:00:36;;;;;;;1.20;0.97;;;;;;;-143.84;62.82;45066.22;5089022;28;20440;-60
2023/09/29 06:03:03;;;;;;;1.10;0.93;;;;;;;-143.84;60.90;45033.84;5089498;28;20479;-60
2023/09/29 06:05:31;;;;;;;1.00;0.70;;;;;;;-143.84;61.37;45022.41;5089724;28;20436;-60
2023/09/29 06:07:58;;;;;;;1.20;0.87;;;;;;;-143.84;60.04;45035.75;5089709;28;20444;-60
2023/09/29 06:10:26;;;;;;;0.97;0.80;;;;;;;-143.84;59.14;45033.84;5089554;28;20436;-60
2023/09/29 06:12:53;;;;;;;1.20;0.97;;;;;;;-143.84;59.00;45028.13;5089512;28;20440;-60
2023/09/29 06:15:21;;;;;;;1.47;0.70;;;;;;;-143.84;57.78;45068.13;5089705;28;20443;-60
2023/09/29 06:17:49;;;;;;;0.90;0.63;;;;;;;-143.84;57.06;45026.22;5089507;28;20460;-60
2023/09/29 06:20:18;;;;;;;1.10;0.60;;;;;;;-143.84;56.96;45037.66;5089337;28;21322;-60
2023/09/29 06:22:45;;;;;;;1.07;0.63;;;;;;;-143.84;55.89;45022.41;5089276;28;20855;-60
2023/09/29 06:25:13;;;;;;;0.90;0.63;;;;;;;-143.84;55.52;45033.84;5089467;28;20805;-60
2023/09/29 06:27:40;;;;;;;1.10;1.00;;;;;;;-143.84;54.54;45010.97;5089316;28;20493;-60
2023/09/29 06:30:08;;;;;;;2.30;1.00;;;;;;;-143.84;54.12;45007.19;5089242;28;20891;-60
2023/09/29 06:32:35;;;;;;;1.57;0.83;;;;;;;-143.84;53.07;45020.50;5089223;28;20547;-60
2023/09/29 06:35:04;;;;;;;1.77;1.00;;;;;;;-143.84;52.89;45026.22;5089329;28;20790;-60
2023/09/29 06:37:31;;;;;;;1.47;1.07;;;;;;;-143.84;52.19;45018.59;5088864;28;20444;-60
2023/09/29 06:39:58;;;;;;;1.10;0.70;;;;;;;-143.84;52.07;45026.22;5089224;28;20472;-60
2023/09/29 06:42:25;;;;;;;0.90;0.70;;;;;;;-143.84;51.32;45024.31;5088906;28;21031;-60
2023/09/29 06:44:52;;;;;;;0.90;0.80;;;;;;;-143.84;50.76;45016.69;5089288;28;20517;-60
2023/09/29 06:47:19;;;;;;;0.97;0.60;;;;;;;-143.84;50.25;45030.03;5089072;28;20428;-61
2023/09/29 06:49:47;;;;;;;1.03;0.90;;;;;;;-143.84;50.03;45026.22;5088796;28;20446;-60
2023/09/29 06:52:16;;;;;;;0.90;0.60;;;;;;;-143.84;49.56;45009.09;5088822;28;20439;-60
2023/09/29 06:54:43;;;;;;;1.93;1.03;;;;;;;-143.84;48.71;45007.19;5088902;28;20447;-60
2023/09/29 06:57:10;;;;;;;0.90;0.50;;;;;;;-143.84;48.60;45003.38;5088840;28;20505;-60
2023/09/29 06:59:37;;;;;;;1.00;0.90;;;;;;;-143.84;49.72;45026.22;5088711;28;20487;-60
2023/09/29 07:02:04;;;;;;;1.27;0.67;;;;;;;-143.84;50.16;45007.19;5088698;28;20555;-60
2023/09/29 07:04:32;;;;;;;1.10;0.77;;;;;;;-143.84;48.91;44991.94;5088795;28;20555;-60
2023/09/29 07:06:59;;;;;;;0.93;0.83;;;;;;;-143.84;48.67;45007.19;5088513;28;20447;-60
2023/09/29 07:09:28;;;;;;;1.50;1.40;;;;;;;-143.84;48.08;45016.69;5088721;28;20436;-60
2023/09/29 07:11:55;;;;;;;0.80;0.40;;;;;;;-143.84;47.60;45007.19;5088582;28;20454;-60
2023/09/29 07:14:22;;;;;;;1.03;0.80;;;;;;;-143.84;47.77;45009.09;5089005;28;20882;-60
2023/09/29 07:16:52;;;;;;;1.10;0.80;;;;;;;-143.84;46.63;44967.19;5088811;28;20440;-60
2023/09/29 07:19:19;;;;;;;1.10;0.83;;;;;;;-143.84;47.38;44984.31;5088302;28;20574;-60
2023/09/29 07:21:47;;;;;;;1.30;0.97;;;;;;;-143.84;48.29;45012.88;5088600;28;20492;-60
2023/09/29 07:24:14;;;;;;;0.90;0.77;;;;;;;-143.84;47.86;44976.72;5088531;28;20475;-60
2023/09/29 07:26:42;;;;;;;0.93;0.70;;;;;;;-143.84;48.28;44980.53;5088374;28;20459;-60
2023/09/29 07:29:11;;;;;;;1.40;0.90;;;;;;;-143.84;47.12;44972.91;5088724;28;20809;-60
2023/09/29 07:31:46;;;;;;;0.90;0.50;;;;;;;-143.84;46.89;44969.09;5088643;28;20451;-60
2023/09/29 07:34:13;;;;;;;2.37;1.37;;;;;;;-143.84;47.11;44982.41;5088394;28;20476;-60
2023/09/29 07:36:41;;;;;;;1.13;0.80;;;;;;;-143.84;47.41;44982.41;5088468;28;20439;-60
2023/09/29 07:39:08;;;;;;;1.20;0.60;;;;;;;-143.84;47.66;45007.19;5088610;28;20867;-60
2023/09/29 07:41:35;;;;;;;1.13;1.03;;;;;;;-143.84;47.81;44978.63;5088273;28;20816;-60
2023/09/29 07:44:04;;;;;;;1.60;0.87;;;;;;;-143.84;47.75;45018.59;5088276;28;20483;-60
2023/09/29 07:46:31;;;;;;;0.90;0.63;;;;;;;-143.84;47.36;44993.84;5088617;28;20440;-60
2023/09/29 07:48:58;;;;;;;1.07;0.87;;;;;;;-143.84;48.27;44988.13;5088089;28;20436;-60
2023/09/29 07:51:25;;;;;;;1.47;0.80;;;;;;;-143.84;48.37;45007.19;5088192;28;20440;-60
2023/09/29 07:53:52;;;;;;;1.00;0.80;;;;;;;-143.84;48.63;44990.03;5088221;28;20436;-60
2023/09/29 07:56:19;;;;;;;1.00;0.90;;;;;;;-143.84;49.13;44988.13;5088230;28;20562;-60
2023/09/29 07:58:46;;;;;;;0.87;0.67;;;;;;;-143.84;49.08;45001.47;5088184;28;20448;-60
2023/09/29 08:01:15;;;;;;;1.43;1.33;;;;;;;-143.84;49.13;45028.13;5088290;28;20439;-60
2023/09/29 08:03:42;;;;;;;0.90;0.60;;;;;;;-143.84;48.92;45018.59;5088067;28;20487;-60
2023/09/29 08:06:09;;;;;;;1.30;1.20;;;;;;;-143.84;48.27;45014.78;5088117;28;20443;-60
2023/09/29 08:08:36;;;;;;;0.90;0.60;;;;;;;-143.84;48.36;45020.50;5088117;28;20443;-60
2023/09/29 08:11:04;;;;;;;1.43;1.07;;;;;;;-143.84;47.69;44993.84;5088087;28;20435;-59
2023/09/29 08:13:31;;;;;;;1.10;0.90;;;;;;;-143.84;48.09;45010.97;5088056;28;20452;-60
2023/09/29 08:15:58;;;;;;;1.10;0.90;;;;;;;-143.84;47.88;45020.50;5087901;28;20432;-60
2023/09/29 08:18:28;;;;;;;1.30;0.80;;;;;;;-143.84;48.51;45012.88;5087989;28;21060;-60
2023/09/29 08:20:55;;;;;;;1.07;0.60;;;;;;;-143.84;48.32;44972.91;5088103;28;20451;-60
2023/09/29 08:23:23;;;;;;;1.20;1.10;;;;;;;-143.84;48.39;45001.47;5088445;28;20467;-60
2023/09/29 08:25:50;;;;;;;3.67;2.33;;;;;;;-143.84;49.29;45016.69;5091518;28;20526;-60
2023/09/29 08:28:17;;;;;;;0.90;0.60;;;;;;;-143.84;48.91;45001.47;5091596;28;20504;-60
2023/09/29 08:30:44;;;;;;;0.90;0.50;;;;;;;-143.84;47.69;44988.13;5091452;28;20444;-60
2023/09/29 08:33:11;;;;;;;0.90;0.60;;;;;;;-143.84;48.10;44971.00;5091413;28;20450;-60
2023/09/29 08:35:40;;;;;;;1.73;1.33;;;;;;;-143.84;47.46;45014.78;5091363;28;20448;-60
2023/09/29 08:38:07;;;;;;;0.90;0.70;;;;;;;-143.84;47.23;44984.31;5091492;28;20501;-60
2023/09/29 08:40:39;;;;;;;1.10;1.00;;;;;;;-143.84;45.58;44976.72;5091479;28;20443;-59
2023/09/29 08:43:10;;;;;;;1.93;1.03;;;;;;;-143.84;45.81;44965.28;5091182;28;20996;-60
2023/09/29 08:45:43;;;;;;;2.07;1.07;;;;;;;-143.84;45.72;44969.09;5091606;28;20513;-60
2023/09/29 08:48:11;;;;;;;0.97;0.70;;;;;;;-143.84;43.82;44946.25;5091186;28;20435;-60
2023/09/29 08:50:41;;;;;;;1.00;0.87;;;;;;;-143.84;43.80;44953.88;5091020;28;20436;-60
2023/09/29 08:53:10;;;;;;;1.10;1.00;;;;;;;-143.84;44.31;44976.72;5091069;28;20448;-60
2023/09/29 08:55:39;;;;;;;1.07;0.97;;;;;;;-143.84;42.70;44953.88;5090918;28;20454;-60
2023/09/29 08:58:07;;;;;;;1.17;1.03;;;;;;;-143.84;43.22;44971.00;5090947;28;20450;-60
2023/09/29 09:00:34;;;;;;;1.00;0.90;;;;;;;-143.84;42.56;44965.28;5091165;28;20444;-60
2023/09/29 09:03:02;;;;;;;1.03;0.70;;;;;;;-143.84;43.46;44936.72;5090960;28;20509;-60
2023/09/29 09:05:29;;;;;;;1.10;1.00;;;;;;;-143.84;42.66;44969.09;5090926;28;20436;-59
2023/09/29 09:08:01;;;;;;;1.00;0.70;;;;;;;-143.84;42.07;44961.47;5091037;28;20444;-60
2023/09/29 09:10:32;;;;;;;1.17;1.07;;;;;;;-143.84;42.79;44961.47;5090844;28;20447;-60
2023/09/29 09:12:59;;;;;;;1.00;0.70;;;;;;;-143.84;42.34;44921.50;5090981;28;20462;-60
2023/09/29 09:15:27;;;;;;;1.83;1.07;;;;;;;-143.84;42.48;44971.00;5090578;28;20525;-60
2023/09/29 09:17:56;;;;;;;1.10;0.80;;;;;;;-143.84;43.10;44929.09;5090454;28;20524;-61
2023/09/29 09:20:23;;;;;;;1.27;0.80;;;;;;;-143.84;42.07;44951.97;5090484;28;20487;-60
2023/09/29 09:22:59;;;;;;;0.90;0.50;;;;;;;-143.84;42.22;44953.88;5090496;28;20552;-60
2023/09/29 09:25:38;;;;;;;1.60;1.10;;;;;;;-143.84;42.21;44969.09;5091071;28;20448;-60
2023/09/29 09:28:06;;;;;;;0.90;0.80;;;;;;;-143.84;42.05;44934.81;5090413;28;20448;-60
2023/09/29 09:30:35;;;;;;;1.00;0.80;;;;;;;-143.84;41.09;44953.88;5090169;28;20584;-60
2023/09/29 09:33:06;;;;;;;1.07;0.80;;;;;;;-143.84;41.59;44957.66;5090337;28;20451;-63
2023/09/29 09:35:37;;;;;;;1.53;1.10;;;;;;;-143.84;40.60;44948.16;5089164;28;20501;-64
2023/09/29 09:38:05;;;;;;;0.90;0.70;;;;;;;-143.84;40.36;44919.59;5090479;28;20463;-63
2023/09/29 09:40:32;;;;;;;1.23;0.97;;;;;;;-143.84;41.02;44934.81;5090473;28;20440;-63
2023/09/29 09:43:03;;;;;;;1.10;0.93;;;;;;;-143.84;39.79;44967.19;5090214;28;20994;-63
2023/09/29 09:45:37;;;;;;;2.37;1.10;;;;;;;-143.84;40.37;44931.00;5089984;28;20527;-63
2023/09/29 09:48:07;;;;;;;1.07;0.97;;;;;;;-143.84;40.23;44927.19;5089957;28;20442;-63
2023/09/29 09:50:36;;;;;;;1.10;0.80;;;;;;;-143.84;39.69;44976.72;5090178;28;20515;-63
2023/09/29 09:53:08;;;;;;;0.93;0.80;;;;;;;-143.84;39.75;44972.91;5089984;28;20837;-63
2023/09/29 09:55:40;;;;;;;1.13;1.03;;;;;;;-143.84;40.24;44946.25;5089920;28;20952;-63
2023/09/29 09:58:10;;;;;;;0.90;0.70;;;;;;;-143.84;39.55;44971.00;5089764;28;20532;-63
2023/09/29 10:00:41;;;;;;;1.67;1.53;;;;;;;-143.84;40.18;44980.53;5089965;28;20458;-63
2023/09/29 10:03:12;;;;;;;1.23;1.13;;;;;;;-143.84;40.58;44946.25;5089853;28;20929;-63
2023/09/29 10:05:41;;;;;;;1.63;1.53;;;;;;;-143.84;40.66;44963.38;5089508;28;20481;-63
2023/09/29 10:08:12;;;;;;;1.20;1.00;;;;;;;-143.84;41.05;44955.75;5089732;28;20446;-63
2023/09/29 10:10:42;;;;;;;1.20;1.00;;;;;;;-143.84;41.37;44959.56;5089519;28;20536;-63
2023/09/29 10:13:12;;;;;;;0.97;0.60;;;;;;;-143.84;40.98;44953.88;5089302;28;20451;-63
2023/09/29 10:15:39;;;;;;;1.13;0.87;;;;;;;-143.84;40.51;44927.19;5088658;28;20537;-60
2023/09/29 10:18:17;;;;;;;1.77;0.80;;;;;;;-143.84;40.94;44982.41;5088479;28;20525;-60
2023/09/29 10:20:46;;;;;;;1.40;1.30;;;;;;;-143.84;40.86;44984.31;5089042;28;20458;-60
2023/09/29 10:23:16;;;;;;;1.10;1.00;;;;;;;-143.84;40.74;44953.88;5088514;28;20447;-60
2023/09/29 10:25:55;;;;;;;1.00;0.83;;;;;;;-143.84;41.24;44951.97;5088636;28;20436;-60
2023/09/29 10:28:31;;;;;;;1.33;1.23;;;;;;;-143.84;41.97;44953.88;5088573;28;21006;-60
2023/09/29 10:31:08;;;;;;;1.10;0.90;;;;;;;-143.84;41.68;44980.53;5089009;28;20440;-60
2023/09/29 10:33:50;;;;;;;1.10;1.00;;;;;;;-143.84;41.83;44931.00;5089316;28;20500;-60
2023/09/29 10:36:18;;;;;;;1.67;0.93;;;;;;;-143.84;42.62;44976.72;5089452;28;20452;-60
2023/09/29 10:38:47;;;;;;;1.10;0.90;;;;;;;-143.84;43.29;44957.66;5089035;28;20448;-61
2023/09/29 10:41:15;;;;;;;1.37;1.20;;;;;;;-143.84;43.84;44959.56;5089062;28;20448;-60
2023/09/29 10:43:48;;;;;;;1.13;1.00;;;;;;;-143.84;45.97;44959.56;5088849;28;20484;-60
2023/09/29 10:46:16;;;;;;;2.03;1.10;;;;;;;-143.84;46.80;44965.28;5088540;28;20950;-60
2023/09/29 10:48:47;;;;;;;1.83;1.17;;;;;;;-143.84;46.92;44951.97;5089516;28;20435;-60
2023/09/29 10:51:23;;;;;;;1.30;0.93;;;;;;;-143.84;46.63;44951.97;5089225;28;20458;-60
2023/09/29 10:53:51;;;;;;;1.10;1.00;;;;;;;-143.84;47.26;44965.28;5088844;28;20443;-60
2023/09/29 10:56:20;;;;;;;3.20;1.27;;;;;;;-143.84;47.46;44972.91;5088957;28;20516;-60
2023/09/29 10:58:48;;;;;;;1.23;0.93;;;;;;;-143.84;48.59;44953.88;5088686;28;20933;-60
2023/09/29 11:01:21;;;;;;;1.53;0.90;;;;;;;-143.84;48.91;44940.53;5088823;28;20499;-60
2023/09/29 11:03:50;;;;;;;1.83;1.10;;;;;;;-143.84;49.00;44982.41;5088665;28;20499;-60
2023/09/29 11:06:18;;;;;;;1.10;1.00;;;;;;;-143.84;49.76;44955.75;5088931;28;20447;-60
2023/09/29 11:08:55;;;;;;;1.10;0.80;;;;;;;-143.84;49.69;44955.75;5088844;28;20545;-60
2023/09/29 11:11:22;;;;;;;1.47;0.97;;;;;;;-143.84;50.48;44944.34;5088561;28;20435;-60
2023/09/29 11:13:56;;;;;;;1.23;1.13;;;;;;;-143.84;51.05;44950.06;5088631;28;20488;-60
2023/09/29 11:16:25;;;;;;;1.73;0.90;;;;;;;-143.84;51.84;44946.25;5088809;28;20501;-60
2023/09/29 11:18:56;;;;;;;1.20;1.10;;;;;;;-143.84;52.43;44957.66;5088337;28;20486;-60
2023/09/29 11:21:34;;;;;;;1.20;1.10;;;;;;;-143.84;52.34;44972.91;5088716;28;20546;-60